sensor_id;sensor_type;location;lat;lon;timestamp;temperature;humidity
8605;DHT22;4340;52.516;13.468;2022-09-09T00:00:58;15.90;99.90
8605;DHT22;4340;52.516;13.468;2022-09-09T00:03:33;15.80;99.90
8605;DHT22;4340;52.516;13.468;2022-09-09T00:06:08;15.90;99.90
8605;DHT22;4340;52.516;13.468;2022-09-09T00:08:45;15.80;99.90
8605;DHT22;4340;52.516;13.468;2022-09-09T00:11:17;15.80;99.90
8605;DHT22;4340;52.516;13.468;2022-09-09T00:13:49;15.80;99.90
8605;DHT22;4340;52.516;13.468;2022-09-09T00:16:20;15.80;99.90
8605;DHT22;4340;52.516;13.468;2022-09-09T00:18:55;15.80;99.90
8605;DHT22;4340;52.516;13.468;2022-09-09T00:21:28;15.80;99.90
8605;DHT22;4340;52.516;13.468;2022-09-09T00:24:01;15.80;1.00
8605;DHT22;4340;52.516;13.468;2022-09-09T00:26:35;15.80;1.00
8605;DHT22;4340;52.516;13.468;2022-09-09T00:29:12;15.80;99.90
8605;DHT22;4340;52.516;13.468;2022-09-09T00:31:41;15.80;1.00
8605;DHT22;4340;52.516;13.468;2022-09-09T00:34:12;15.80;1.00
8605;DHT22;4340;52.516;13.468;2022-09-09T00:36:40;15.80;99.90
8605;DHT22;4340;52.516;13.468;2022-09-09T00:39:15;15.80;1.00
8605;DHT22;4340;52.516;13.468;2022-09-09T00:41:55;15.80;1.00
8605;DHT22;4340;52.516;13.468;2022-09-09T00:44:30;15.70;1.00
8605;DHT22;4340;52.516;13.468;2022-09-09T00:47:25;15.70;1.00
8605;DHT22;4340;52.516;13.468;2022-09-09T00:50:00;15.60;1.00
8605;DHT22;4340;52.516;13.468;2022-09-09T00:52:35;15.70;99.90
8605;DHT22;4340;52.516;13.468;2022-09-09T00:55:11;15.70;1.00
8605;DHT22;4340;52.516;13.468;2022-09-09T00:57:41;15.60;1.00
8605;DHT22;4340;52.516;13.468;2022-09-09T01:00:20;15.60;1.00
8605;DHT22;4340;52.516;13.468;2022-09-09T01:02:54;15.70;1.00
8605;DHT22;4340;52.516;13.468;2022-09-09T01:05:30;15.70;99.90
8605;DHT22;4340;52.516;13.468;2022-09-09T01:08:02;15.70;1.00
8605;DHT22;4340;52.516;13.468;2022-09-09T01:10:38;15.60;1.00
8605;DHT22;4340;52.516;13.468;2022-09-09T01:13:13;15.60;1.00
8605;DHT22;4340;52.516;13.468;2022-09-09T01:15:44;15.60;1.00
8605;DHT22;4340;52.516;13.468;2022-09-09T01:18:14;15.50;1.00
8605;DHT22;4340;52.516;13.468;2022-09-09T01:20:50;15.50;1.00
8605;DHT22;4340;52.516;13.468;2022-09-09T01:26:19;15.40;1.00
8605;DHT22;4340;52.516;13.468;2022-09-09T01:28:49;15.40;1.00
8605;DHT22;4340;52.516;13.468;2022-09-09T01:31:20;15.30;1.00
8605;DHT22;4340;52.516;13.468;2022-09-09T01:33:47;15.30;1.00
8605;DHT22;4340;52.516;13.468;2022-09-09T01:36:19;15.40;1.00
8605;DHT22;4340;52.516;13.468;2022-09-09T01:38:47;15.30;99.90
8605;DHT22;4340;52.516;13.468;2022-09-09T01:41:13;15.40;99.90
8605;DHT22;4340;52.516;13.468;2022-09-09T01:43:41;15.30;99.90
8605;DHT22;4340;52.516;13.468;2022-09-09T01:46:08;15.30;1.00
8605;DHT22;4340;52.516;13.468;2022-09-09T01:48:36;15.30;99.90
8605;DHT22;4340;52.516;13.468;2022-09-09T01:51:02;15.30;1.00
8605;DHT22;4340;52.516;13.468;2022-09-09T01:53:29;15.30;99.90
8605;DHT22;4340;52.516;13.468;2022-09-09T01:56:04;15.20;99.90
8605;DHT22;4340;52.516;13.468;2022-09-09T01:58:41;15.20;99.90
8605;DHT22;4340;52.516;13.468;2022-09-09T02:01:17;15.20;99.90
8605;DHT22;4340;52.516;13.468;2022-09-09T02:03:52;15.10;99.90
8605;DHT22;4340;52.516;13.468;2022-09-09T02:06:27;15.10;99.90
8605;DHT22;4340;52.516;13.468;2022-09-09T02:08:56;15.00;1.00
8605;DHT22;4340;52.516;13.468;2022-09-09T02:11:25;15.10;1.00
8605;DHT22;4340;52.516;13.468;2022-09-09T02:13:56;15.00;99.90
8605;DHT22;4340;52.516;13.468;2022-09-09T02:16:28;15.00;1.00
8605;DHT22;4340;52.516;13.468;2022-09-09T02:19:00;15.00;1.00
8605;DHT22;4340;52.516;13.468;2022-09-09T02:21:29;15.00;99.90
8605;DHT22;4340;52.516;13.468;2022-09-09T02:23:59;15.00;22.60
8605;DHT22;4340;52.516;13.468;2022-09-09T02:26:31;15.00;1.00
8605;DHT22;4340;52.516;13.468;2022-09-09T02:29:02;15.00;1.00
8605;DHT22;4340;52.516;13.468;2022-09-09T02:31:32;15.10;1.00
8605;DHT22;4340;52.516;13.468;2022-09-09T02:34:01;15.00;1.00
8605;DHT22;4340;52.516;13.468;2022-09-09T02:36:32;14.90;1.00
8605;DHT22;4340;52.516;13.468;2022-09-09T02:39:01;14.90;99.90
8605;DHT22;4340;52.516;13.468;2022-09-09T02:41:32;14.90;1.00
8605;DHT22;4340;52.516;13.468;2022-09-09T02:43:59;14.90;99.90
8605;DHT22;4340;52.516;13.468;2022-09-09T02:46:40;14.90;99.90
8605;DHT22;4340;52.516;13.468;2022-09-09T02:49:10;15.00;99.90
8605;DHT22;4340;52.516;13.468;2022-09-09T02:51:48;14.90;7.30
8605;DHT22;4340;52.516;13.468;2022-09-09T02:54:22;14.90;99.90
8605;DHT22;4340;52.516;13.468;2022-09-09T02:56:52;14.90;1.00
8605;DHT22;4340;52.516;13.468;2022-09-09T02:59:20;14.90;99.90
8605;DHT22;4340;52.516;13.468;2022-09-09T03:01:48;14.80;1.00
8605;DHT22;4340;52.516;13.468;2022-09-09T03:04:15;14.90;99.90
8605;DHT22;4340;52.516;13.468;2022-09-09T03:06:42;14.90;22.90
8605;DHT22;4340;52.516;13.468;2022-09-09T03:09:09;14.90;1.00
8605;DHT22;4340;52.516;13.468;2022-09-09T03:11:36;14.90;1.00
8605;DHT22;4340;52.516;13.468;2022-09-09T03:14:04;14.80;1.00
8605;DHT22;4340;52.516;13.468;2022-09-09T03:16:31;14.80;1.00
8605;DHT22;4340;52.516;13.468;2022-09-09T03:19:00;14.80;1.00
8605;DHT22;4340;52.516;13.468;2022-09-09T03:21:27;14.80;28.60
8605;DHT22;4340;52.516;13.468;2022-09-09T03:23:53;14.90;1.00
8605;DHT22;4340;52.516;13.468;2022-09-09T03:26:20;14.80;1.00
8605;DHT22;4340;52.516;13.468;2022-09-09T03:28:47;14.80;1.00
8605;DHT22;4340;52.516;13.468;2022-09-09T03:31:16;14.80;1.00
8605;DHT22;4340;52.516;13.468;2022-09-09T03:33:44;14.80;1.00
8605;DHT22;4340;52.516;13.468;2022-09-09T03:36:13;14.80;1.00
8605;DHT22;4340;52.516;13.468;2022-09-09T03:38:40;14.80;1.00
8605;DHT22;4340;52.516;13.468;2022-09-09T03:41:07;14.80;1.00
8605;DHT22;4340;52.516;13.468;2022-09-09T03:43:34;14.80;1.00
8605;DHT22;4340;52.516;13.468;2022-09-09T03:46:01;14.80;1.00
8605;DHT22;4340;52.516;13.468;2022-09-09T03:48:28;14.80;1.00
8605;DHT22;4340;52.516;13.468;2022-09-09T03:50:55;14.80;1.00
8605;DHT22;4340;52.516;13.468;2022-09-09T03:53:24;14.80;1.00
8605;DHT22;4340;52.516;13.468;2022-09-09T03:55:53;14.70;1.00
8605;DHT22;4340;52.516;13.468;2022-09-09T03:58:21;14.70;1.00
8605;DHT22;4340;52.516;13.468;2022-09-09T04:00:54;14.70;1.00
8605;DHT22;4340;52.516;13.468;2022-09-09T04:03:20;14.70;1.00
8605;DHT22;4340;52.516;13.468;2022-09-09T04:05:50;14.70;99.90
8605;DHT22;4340;52.516;13.468;2022-09-09T04:08:16;14.70;99.90
8605;DHT22;4340;52.516;13.468;2022-09-09T04:10:46;14.60;99.90
8605;DHT22;4340;52.516;13.468;2022-09-09T04:13:13;14.60;99.90
8605;DHT22;4340;52.516;13.468;2022-09-09T04:15:41;14.60;99.90
8605;DHT22;4340;52.516;13.468;2022-09-09T04:18:09;14.60;99.90
8605;DHT22;4340;52.516;13.468;2022-09-09T04:20:37;14.60;99.90
8605;DHT22;4340;52.516;13.468;2022-09-09T04:23:03;14.60;1.00
8605;DHT22;4340;52.516;13.468;2022-09-09T04:25:30;14.60;1.00
8605;DHT22;4340;52.516;13.468;2022-09-09T04:28:00;14.60;99.90
8605;DHT22;4340;52.516;13.468;2022-09-09T04:30:27;14.60;99.90
8605;DHT22;4340;52.516;13.468;2022-09-09T04:32:54;14.60;99.90
8605;DHT22;4340;52.516;13.468;2022-09-09T04:35:21;14.60;99.90
8605;DHT22;4340;52.516;13.468;2022-09-09T04:37:48;14.60;99.90
8605;DHT22;4340;52.516;13.468;2022-09-09T04:40:15;14.60;1.00
8605;DHT22;4340;52.516;13.468;2022-09-09T04:42:41;14.60;99.90
8605;DHT22;4340;52.516;13.468;2022-09-09T04:45:10;14.60;99.90
8605;DHT22;4340;52.516;13.468;2022-09-09T04:47:38;14.50;99.90
8605;DHT22;4340;52.516;13.468;2022-09-09T04:50:06;14.60;1.00
8605;DHT22;4340;52.516;13.468;2022-09-09T04:52:34;14.60;99.90
8605;DHT22;4340;52.516;13.468;2022-09-09T04:55:00;14.60;99.90
8605;DHT22;4340;52.516;13.468;2022-09-09T04:57:27;14.60;99.90
8605;DHT22;4340;52.516;13.468;2022-09-09T04:59:54;14.60;99.90
8605;DHT22;4340;52.516;13.468;2022-09-09T05:02:22;14.60;99.90
8605;DHT22;4340;52.516;13.468;2022-09-09T05:04:48;14.70;99.90
8605;DHT22;4340;52.516;13.468;2022-09-09T05:07:15;14.70;79.50
8605;DHT22;4340;52.516;13.468;2022-09-09T05:09:42;14.70;99.90
8605;DHT22;4340;52.516;13.468;2022-09-09T05:12:09;14.70;1.00
8605;DHT22;4340;52.516;13.468;2022-09-09T05:14:36;14.80;86.90
8605;DHT22;4340;52.516;13.468;2022-09-09T05:17:03;14.80;57.40
8605;DHT22;4340;52.516;13.468;2022-09-09T05:19:31;14.80;99.90
8605;DHT22;4340;52.516;13.468;2022-09-09T05:21:58;14.80;98.40
8605;DHT22;4340;52.516;13.468;2022-09-09T05:24:24;14.90;96.50
8605;DHT22;4340;52.516;13.468;2022-09-09T05:26:51;14.90;1.00
8605;DHT22;4340;52.516;13.468;2022-09-09T05:29:17;15.00;1.00
8605;DHT22;4340;52.516;13.468;2022-09-09T05:31:44;15.00;1.00
8605;DHT22;4340;52.516;13.468;2022-09-09T05:34:11;15.10;1.00
8605;DHT22;4340;52.516;13.468;2022-09-09T05:36:39;15.10;1.00
8605;DHT22;4340;52.516;13.468;2022-09-09T05:39:05;15.10;1.00
8605;DHT22;4340;52.516;13.468;2022-09-09T05:41:32;15.10;1.00
8605;DHT22;4340;52.516;13.468;2022-09-09T05:43:58;15.10;1.00
8605;DHT22;4340;52.516;13.468;2022-09-09T05:46:26;15.20;1.00
8605;DHT22;4340;52.516;13.468;2022-09-09T05:48:53;15.30;1.00
8605;DHT22;4340;52.516;13.468;2022-09-09T05:51:21;15.40;1.00
8605;DHT22;4340;52.516;13.468;2022-09-09T05:53:51;15.40;1.00
8605;DHT22;4340;52.516;13.468;2022-09-09T05:56:19;15.50;1.00
8605;DHT22;4340;52.516;13.468;2022-09-09T05:58:47;15.70;1.00
8605;DHT22;4340;52.516;13.468;2022-09-09T06:01:17;15.80;1.00
8605;DHT22;4340;52.516;13.468;2022-09-09T06:03:45;15.90;1.00
8605;DHT22;4340;52.516;13.468;2022-09-09T06:06:14;15.90;1.00
8605;DHT22;4340;52.516;13.468;2022-09-09T06:08:42;15.70;99.90
8605;DHT22;4340;52.516;13.468;2022-09-09T06:11:13;15.70;1.00
8605;DHT22;4340;52.516;13.468;2022-09-09T06:13:40;15.80;1.00
8605;DHT22;4340;52.516;13.468;2022-09-09T06:16:08;16.00;1.00
8605;DHT22;4340;52.516;13.468;2022-09-09T06:18:36;16.00;99.90
8605;DHT22;4340;52.516;13.468;2022-09-09T06:21:05;16.20;99.90
8605;DHT22;4340;52.516;13.468;2022-09-09T06:23:33;16.20;99.90
8605;DHT22;4340;52.516;13.468;2022-09-09T06:26:02;16.30;99.90
8605;DHT22;4340;52.516;13.468;2022-09-09T06:28:30;16.30;99.90
8605;DHT22;4340;52.516;13.468;2022-09-09T06:30:58;16.40;99.90
8605;DHT22;4340;52.516;13.468;2022-09-09T06:33:25;16.50;99.90
8605;DHT22;4340;52.516;13.468;2022-09-09T06:35:52;16.50;99.90
8605;DHT22;4340;52.516;13.468;2022-09-09T06:38:19;16.50;99.90
8605;DHT22;4340;52.516;13.468;2022-09-09T06:40:51;16.50;99.90
8605;DHT22;4340;52.516;13.468;2022-09-09T06:43:18;16.60;99.90
8605;DHT22;4340;52.516;13.468;2022-09-09T06:45:53;16.70;99.90
8605;DHT22;4340;52.516;13.468;2022-09-09T06:48:19;16.70;99.90
8605;DHT22;4340;52.516;13.468;2022-09-09T06:50:46;16.50;99.90
8605;DHT22;4340;52.516;13.468;2022-09-09T06:53:16;16.50;99.90
8605;DHT22;4340;52.516;13.468;2022-09-09T06:55:44;16.50;99.90
8605;DHT22;4340;52.516;13.468;2022-09-09T06:58:11;16.60;99.90
8605;DHT22;4340;52.516;13.468;2022-09-09T07:00:37;16.60;99.90
8605;DHT22;4340;52.516;13.468;2022-09-09T07:03:05;16.70;99.90
8605;DHT22;4340;52.516;13.468;2022-09-09T07:05:32;16.70;99.90
8605;DHT22;4340;52.516;13.468;2022-09-09T07:07:59;16.70;99.90
8605;DHT22;4340;52.516;13.468;2022-09-09T07:10:26;16.80;99.90
8605;DHT22;4340;52.516;13.468;2022-09-09T07:12:52;16.80;99.90
8605;DHT22;4340;52.516;13.468;2022-09-09T07:15:20;16.80;99.90
8605;DHT22;4340;52.516;13.468;2022-09-09T07:17:46;16.80;99.90
8605;DHT22;4340;52.516;13.468;2022-09-09T07:20:15;16.80;99.90
8605;DHT22;4340;52.516;13.468;2022-09-09T07:22:41;16.80;99.90
8605;DHT22;4340;52.516;13.468;2022-09-09T07:25:08;17.00;99.90
8605;DHT22;4340;52.516;13.468;2022-09-09T07:27:35;17.10;99.90
8605;DHT22;4340;52.516;13.468;2022-09-09T07:30:01;17.10;93.10
8605;DHT22;4340;52.516;13.468;2022-09-09T07:32:28;17.00;99.90
8605;DHT22;4340;52.516;13.468;2022-09-09T07:34:55;17.10;99.90
8605;DHT22;4340;52.516;13.468;2022-09-09T07:37:24;17.10;91.90
8605;DHT22;4340;52.516;13.468;2022-09-09T07:39:51;17.10;99.30
8605;DHT22;4340;52.516;13.468;2022-09-09T07:42:17;17.10;98.00
8605;DHT22;4340;52.516;13.468;2022-09-09T07:44:44;17.10;99.90
8605;DHT22;4340;52.516;13.468;2022-09-09T07:47:11;17.20;85.80
8605;DHT22;4340;52.516;13.468;2022-09-09T07:49:38;17.30;68.30
8605;DHT22;4340;52.516;13.468;2022-09-09T07:52:04;17.40;73.00
8605;DHT22;4340;52.516;13.468;2022-09-09T07:54:32;17.40;53.70
8605;DHT22;4340;52.516;13.468;2022-09-09T07:56:59;17.50;76.60
8605;DHT22;4340;52.516;13.468;2022-09-09T07:59:25;17.60;82.00
8605;DHT22;4340;52.516;13.468;2022-09-09T08:01:55;17.70;63.60
8605;DHT22;4340;52.516;13.468;2022-09-09T08:04:23;17.70;25.30
8605;DHT22;4340;52.516;13.468;2022-09-09T08:06:52;17.80;28.00
8605;DHT22;4340;52.516;13.468;2022-09-09T08:09:19;17.80;31.30
8605;DHT22;4340;52.516;13.468;2022-09-09T08:11:47;17.80;27.50
8605;DHT22;4340;52.516;13.468;2022-09-09T08:14:14;17.80;34.40
8605;DHT22;4340;52.516;13.468;2022-09-09T08:16:42;17.80;22.00
8605;DHT22;4340;52.516;13.468;2022-09-09T08:19:09;17.80;20.20
8605;DHT22;4340;52.516;13.468;2022-09-09T08:21:37;17.90;10.00
8605;DHT22;4340;52.516;13.468;2022-09-09T08:24:05;17.90;6.20
8605;DHT22;4340;52.516;13.468;2022-09-09T08:26:34;17.80;13.70
8605;DHT22;4340;52.516;13.468;2022-09-09T08:29:05;17.90;11.10
8605;DHT22;4340;52.516;13.468;2022-09-09T08:31:34;17.90;10.00
8605;DHT22;4340;52.516;13.468;2022-09-09T08:34:03;17.80;2.00
8605;DHT22;4340;52.516;13.468;2022-09-09T08:36:31;17.90;10.20
8605;DHT22;4340;52.516;13.468;2022-09-09T08:38:59;17.90;11.40
8605;DHT22;4340;52.516;13.468;2022-09-09T08:41:34;17.90;3.70
8605;DHT22;4340;52.516;13.468;2022-09-09T08:44:07;18.00;1.00
8605;DHT22;4340;52.516;13.468;2022-09-09T08:46:44;18.00;1.00
8605;DHT22;4340;52.516;13.468;2022-09-09T08:49:31;18.00;1.00
8605;DHT22;4340;52.516;13.468;2022-09-09T08:52:08;18.00;1.00
8605;DHT22;4340;52.516;13.468;2022-09-09T08:54:37;18.00;1.00
8605;DHT22;4340;52.516;13.468;2022-09-09T08:57:13;18.00;1.00
8605;DHT22;4340;52.516;13.468;2022-09-09T08:59:42;18.00;1.00
8605;DHT22;4340;52.516;13.468;2022-09-09T09:02:15;18.10;1.00
8605;DHT22;4340;52.516;13.468;2022-09-09T09:04:52;18.10;1.00
8605;DHT22;4340;52.516;13.468;2022-09-09T09:07:29;18.20;1.00
8605;DHT22;4340;52.516;13.468;2022-09-09T09:10:03;18.30;1.00
8605;DHT22;4340;52.516;13.468;2022-09-09T09:12:37;18.40;1.00
8605;DHT22;4340;52.516;13.468;2022-09-09T09:15:11;18.50;1.00
8605;DHT22;4340;52.516;13.468;2022-09-09T09:17:41;18.60;1.00
8605;DHT22;4340;52.516;13.468;2022-09-09T09:20:12;18.80;1.00
8605;DHT22;4340;52.516;13.468;2022-09-09T09:22:45;18.90;1.00
8605;DHT22;4340;52.516;13.468;2022-09-09T09:25:18;19.00;1.00
8605;DHT22;4340;52.516;13.468;2022-09-09T09:27:51;19.10;1.00
8605;DHT22;4340;52.516;13.468;2022-09-09T09:30:22;19.20;1.00
8605;DHT22;4340;52.516;13.468;2022-09-09T09:33:02;19.20;1.00
8605;DHT22;4340;52.516;13.468;2022-09-09T09:35:31;19.20;1.00
8605;DHT22;4340;52.516;13.468;2022-09-09T09:37:58;19.30;1.00
8605;DHT22;4340;52.516;13.468;2022-09-09T09:40:26;19.40;1.00
8605;DHT22;4340;52.516;13.468;2022-09-09T09:42:54;19.40;1.00
8605;DHT22;4340;52.516;13.468;2022-09-09T09:45:29;19.40;1.00
8605;DHT22;4340;52.516;13.468;2022-09-09T09:47:59;19.60;1.00
8605;DHT22;4340;52.516;13.468;2022-09-09T09:50:27;19.40;1.00
8605;DHT22;4340;52.516;13.468;2022-09-09T09:52:54;19.30;1.00
8605;DHT22;4340;52.516;13.468;2022-09-09T09:55:23;19.20;1.00
8605;DHT22;4340;52.516;13.468;2022-09-09T09:57:50;19.20;1.00
8605;DHT22;4340;52.516;13.468;2022-09-09T10:00:19;19.20;1.00
8605;DHT22;4340;52.516;13.468;2022-09-09T10:02:48;19.30;1.00
8605;DHT22;4340;52.516;13.468;2022-09-09T10:05:20;19.40;1.00
8605;DHT22;4340;52.516;13.468;2022-09-09T10:07:47;19.50;1.00
8605;DHT22;4340;52.516;13.468;2022-09-09T10:10:18;19.50;1.00
8605;DHT22;4340;52.516;13.468;2022-09-09T10:12:55;19.50;1.00
8605;DHT22;4340;52.516;13.468;2022-09-09T10:15:36;19.40;1.00
8605;DHT22;4340;52.516;13.468;2022-09-09T10:18:21;19.50;1.00
8605;DHT22;4340;52.516;13.468;2022-09-09T10:20:56;19.50;1.00
8605;DHT22;4340;52.516;13.468;2022-09-09T10:23:33;19.40;1.00
8605;DHT22;4340;52.516;13.468;2022-09-09T10:26:16;19.60;1.00
8605;DHT22;4340;52.516;13.468;2022-09-09T10:29:02;19.70;1.00
8605;DHT22;4340;52.516;13.468;2022-09-09T10:31:38;19.70;1.00
8605;DHT22;4340;52.516;13.468;2022-09-09T10:34:18;19.70;1.00
8605;DHT22;4340;52.516;13.468;2022-09-09T10:36:49;19.70;1.00
8605;DHT22;4340;52.516;13.468;2022-09-09T10:39:26;19.70;1.00
8605;DHT22;4340;52.516;13.468;2022-09-09T10:42:03;19.70;1.00
8605;DHT22;4340;52.516;13.468;2022-09-09T10:44:40;19.70;1.00
8605;DHT22;4340;52.516;13.468;2022-09-09T10:47:24;19.70;1.00
8605;DHT22;4340;52.516;13.468;2022-09-09T10:50:11;19.70;1.00
8605;DHT22;4340;52.516;13.468;2022-09-09T10:52:45;19.80;1.00
8605;DHT22;4340;52.516;13.468;2022-09-09T10:55:18;19.80;1.00
8605;DHT22;4340;52.516;13.468;2022-09-09T10:57:46;19.70;1.00
8605;DHT22;4340;52.516;13.468;2022-09-09T11:00:17;19.80;1.00
8605;DHT22;4340;52.516;13.468;2022-09-09T11:02:48;19.90;1.00
8605;DHT22;4340;52.516;13.468;2022-09-09T11:05:20;20.10;1.00
8605;DHT22;4340;52.516;13.468;2022-09-09T11:07:50;20.30;1.00
8605;DHT22;4340;52.516;13.468;2022-09-09T11:10:24;20.40;1.00
8605;DHT22;4340;52.516;13.468;2022-09-09T11:12:55;20.60;1.00
8605;DHT22;4340;52.516;13.468;2022-09-09T11:15:29;20.50;1.00
8605;DHT22;4340;52.516;13.468;2022-09-09T11:18:00;20.40;1.00
8605;DHT22;4340;52.516;13.468;2022-09-09T11:20:29;20.50;1.00
8605;DHT22;4340;52.516;13.468;2022-09-09T11:23:00;20.70;1.00
8605;DHT22;4340;52.516;13.468;2022-09-09T11:25:31;20.60;1.00
8605;DHT22;4340;52.516;13.468;2022-09-09T11:28:15;20.50;1.00
8605;DHT22;4340;52.516;13.468;2022-09-09T11:30:50;20.30;1.00
8605;DHT22;4340;52.516;13.468;2022-09-09T11:33:42;20.30;1.00
8605;DHT22;4340;52.516;13.468;2022-09-09T11:36:38;20.30;1.00
8605;DHT22;4340;52.516;13.468;2022-09-09T11:39:25;20.30;1.00
8605;DHT22;4340;52.516;13.468;2022-09-09T11:42:06;20.40;1.00
8605;DHT22;4340;52.516;13.468;2022-09-09T11:44:33;20.50;1.00
8605;DHT22;4340;52.516;13.468;2022-09-09T11:46:59;20.50;1.00
8605;DHT22;4340;52.516;13.468;2022-09-09T11:49:28;20.70;1.00
8605;DHT22;4340;52.516;13.468;2022-09-09T11:51:58;20.70;1.00
8605;DHT22;4340;52.516;13.468;2022-09-09T11:54:29;20.70;1.00
8605;DHT22;4340;52.516;13.468;2022-09-09T11:56:57;20.60;1.00
8605;DHT22;4340;52.516;13.468;2022-09-09T11:59:26;20.60;1.00
8605;DHT22;4340;52.516;13.468;2022-09-09T12:01:55;20.60;1.00
8605;DHT22;4340;52.516;13.468;2022-09-09T12:04:33;20.70;1.00
8605;DHT22;4340;52.516;13.468;2022-09-09T12:07:05;20.70;1.00
8605;DHT22;4340;52.516;13.468;2022-09-09T12:09:49;20.60;1.00
8605;DHT22;4340;52.516;13.468;2022-09-09T12:12:26;20.60;1.00
8605;DHT22;4340;52.516;13.468;2022-09-09T12:15:21;20.80;1.00
8605;DHT22;4340;52.516;13.468;2022-09-09T12:17:49;21.20;1.00
8605;DHT22;4340;52.516;13.468;2022-09-09T12:20:19;21.20;1.00
8605;DHT22;4340;52.516;13.468;2022-09-09T12:23:04;21.20;1.00
8605;DHT22;4340;52.516;13.468;2022-09-09T12:25:39;21.10;1.00
8605;DHT22;4340;52.516;13.468;2022-09-09T12:28:15;21.20;1.00
8605;DHT22;4340;52.516;13.468;2022-09-09T12:30:49;21.20;1.00
8605;DHT22;4340;52.516;13.468;2022-09-09T12:33:20;21.10;1.00
8605;DHT22;4340;52.516;13.468;2022-09-09T12:35:51;21.00;1.00
8605;DHT22;4340;52.516;13.468;2022-09-09T12:38:29;21.00;1.00
8605;DHT22;4340;52.516;13.468;2022-09-09T12:40:57;21.10;1.00
8605;DHT22;4340;52.516;13.468;2022-09-09T12:43:25;20.90;1.00
8605;DHT22;4340;52.516;13.468;2022-09-09T12:45:55;20.90;1.00
8605;DHT22;4340;52.516;13.468;2022-09-09T12:48:29;21.00;1.00
8605;DHT22;4340;52.516;13.468;2022-09-09T12:50:57;21.00;1.00
8605;DHT22;4340;52.516;13.468;2022-09-09T12:53:28;21.10;1.00
8605;DHT22;4340;52.516;13.468;2022-09-09T12:55:57;21.20;1.00
8605;DHT22;4340;52.516;13.468;2022-09-09T12:58:25;21.20;1.00
8605;DHT22;4340;52.516;13.468;2022-09-09T13:00:55;21.20;1.00
8605;DHT22;4340;52.516;13.468;2022-09-09T13:03:22;21.10;1.00
8605;DHT22;4340;52.516;13.468;2022-09-09T13:05:49;21.10;1.00
8605;DHT22;4340;52.516;13.468;2022-09-09T13:08:17;21.10;1.00
8605;DHT22;4340;52.516;13.468;2022-09-09T13:10:49;21.20;1.00
8605;DHT22;4340;52.516;13.468;2022-09-09T13:13:21;21.30;1.00
8605;DHT22;4340;52.516;13.468;2022-09-09T13:15:49;21.20;1.00
8605;DHT22;4340;52.516;13.468;2022-09-09T13:18:19;21.20;1.00
8605;DHT22;4340;52.516;13.468;2022-09-09T13:20:48;21.30;1.00
8605;DHT22;4340;52.516;13.468;2022-09-09T13:23:15;21.30;1.00
8605;DHT22;4340;52.516;13.468;2022-09-09T13:25:54;21.30;1.00
8605;DHT22;4340;52.516;13.468;2022-09-09T13:28:23;21.30;1.00
8605;DHT22;4340;52.516;13.468;2022-09-09T13:30:57;21.30;1.00
8605;DHT22;4340;52.516;13.468;2022-09-09T13:33:30;21.20;1.00
8605;DHT22;4340;52.516;13.468;2022-09-09T13:36:00;21.20;1.00
8605;DHT22;4340;52.516;13.468;2022-09-09T13:38:29;21.30;1.00
8605;DHT22;4340;52.516;13.468;2022-09-09T13:41:00;21.40;1.00
8605;DHT22;4340;52.516;13.468;2022-09-09T13:43:31;21.40;1.00
8605;DHT22;4340;52.516;13.468;2022-09-09T13:46:00;21.40;1.00
8605;DHT22;4340;52.516;13.468;2022-09-09T13:48:28;21.40;1.00
8605;DHT22;4340;52.516;13.468;2022-09-09T13:51:00;21.40;1.00
8605;DHT22;4340;52.516;13.468;2022-09-09T13:53:27;21.50;1.00
8605;DHT22;4340;52.516;13.468;2022-09-09T13:55:54;21.60;1.00
8605;DHT22;4340;52.516;13.468;2022-09-09T13:58:24;21.60;1.00
8605;DHT22;4340;52.516;13.468;2022-09-09T14:00:51;21.70;1.00
8605;DHT22;4340;52.516;13.468;2022-09-09T14:03:18;21.80;1.00
8605;DHT22;4340;52.516;13.468;2022-09-09T14:05:45;21.80;1.00
8605;DHT22;4340;52.516;13.468;2022-09-09T14:08:21;21.80;1.00
8605;DHT22;4340;52.516;13.468;2022-09-09T14:10:48;21.70;1.00
8605;DHT22;4340;52.516;13.468;2022-09-09T14:13:15;21.70;1.00
8605;DHT22;4340;52.516;13.468;2022-09-09T14:15:43;21.60;1.00
8605;DHT22;4340;52.516;13.468;2022-09-09T14:18:11;21.60;1.00
8605;DHT22;4340;52.516;13.468;2022-09-09T14:20:39;21.50;1.00
8605;DHT22;4340;52.516;13.468;2022-09-09T14:23:10;21.50;1.00
8605;DHT22;4340;52.516;13.468;2022-09-09T14:25:40;21.60;1.00
8605;DHT22;4340;52.516;13.468;2022-09-09T14:28:08;21.60;1.00
8605;DHT22;4340;52.516;13.468;2022-09-09T14:30:37;21.60;1.00
8605;DHT22;4340;52.516;13.468;2022-09-09T14:33:05;21.70;1.00
8605;DHT22;4340;52.516;13.468;2022-09-09T14:35:32;21.70;1.00
8605;DHT22;4340;52.516;13.468;2022-09-09T14:37:59;21.70;1.00
8605;DHT22;4340;52.516;13.468;2022-09-09T14:40:26;21.80;1.00
8605;DHT22;4340;52.516;13.468;2022-09-09T14:42:53;21.80;1.00
8605;DHT22;4340;52.516;13.468;2022-09-09T14:45:19;21.80;1.00
8605;DHT22;4340;52.516;13.468;2022-09-09T14:47:46;21.70;1.00
8605;DHT22;4340;52.516;13.468;2022-09-09T14:50:15;21.70;1.00
8605;DHT22;4340;52.516;13.468;2022-09-09T14:52:41;21.60;1.00
8605;DHT22;4340;52.516;13.468;2022-09-09T14:55:08;21.60;1.00
8605;DHT22;4340;52.516;13.468;2022-09-09T14:57:35;21.50;1.00
8605;DHT22;4340;52.516;13.468;2022-09-09T15:00:02;21.40;1.00
8605;DHT22;4340;52.516;13.468;2022-09-09T15:02:29;21.40;1.00
8605;DHT22;4340;52.516;13.468;2022-09-09T15:04:56;21.30;1.00
8605;DHT22;4340;52.516;13.468;2022-09-09T15:07:25;21.20;1.00
8605;DHT22;4340;52.516;13.468;2022-09-09T15:09:52;21.30;1.00
8605;DHT22;4340;52.516;13.468;2022-09-09T15:12:19;21.30;1.00
8605;DHT22;4340;52.516;13.468;2022-09-09T15:14:46;21.30;1.00
8605;DHT22;4340;52.516;13.468;2022-09-09T15:17:13;21.30;1.00
8605;DHT22;4340;52.516;13.468;2022-09-09T15:19:40;21.30;1.00
8605;DHT22;4340;52.516;13.468;2022-09-09T15:22:08;21.40;1.00
8605;DHT22;4340;52.516;13.468;2022-09-09T15:24:36;21.40;1.00
8605;DHT22;4340;52.516;13.468;2022-09-09T15:27:03;21.50;1.00
8605;DHT22;4340;52.516;13.468;2022-09-09T15:29:29;21.50;1.00
8605;DHT22;4340;52.516;13.468;2022-09-09T15:31:56;21.60;1.00
8605;DHT22;4340;52.516;13.468;2022-09-09T15:34:23;21.60;1.00
8605;DHT22;4340;52.516;13.468;2022-09-09T15:36:50;21.60;1.00
8605;DHT22;4340;52.516;13.468;2022-09-09T15:39:17;21.70;1.00
8605;DHT22;4340;52.516;13.468;2022-09-09T15:41:47;21.70;1.00
8605;DHT22;4340;52.516;13.468;2022-09-09T15:44:14;21.60;1.00
8605;DHT22;4340;52.516;13.468;2022-09-09T15:46:43;21.60;1.00
8605;DHT22;4340;52.516;13.468;2022-09-09T15:49:12;21.50;1.00
8605;DHT22;4340;52.516;13.468;2022-09-09T15:51:41;21.50;1.00
8605;DHT22;4340;52.516;13.468;2022-09-09T15:54:09;21.40;1.00
8605;DHT22;4340;52.516;13.468;2022-09-09T15:56:37;21.40;1.00
8605;DHT22;4340;52.516;13.468;2022-09-09T15:59:05;21.30;1.00
8605;DHT22;4340;52.516;13.468;2022-09-09T16:01:32;21.20;1.00
8605;DHT22;4340;52.516;13.468;2022-09-09T16:03:59;21.20;1.00
8605;DHT22;4340;52.516;13.468;2022-09-09T16:06:28;21.20;1.00
8605;DHT22;4340;52.516;13.468;2022-09-09T16:08:56;21.20;1.00
8605;DHT22;4340;52.516;13.468;2022-09-09T16:11:24;21.40;1.00
8605;DHT22;4340;52.516;13.468;2022-09-09T16:13:53;21.40;1.00
8605;DHT22;4340;52.516;13.468;2022-09-09T16:16:24;21.40;1.00
8605;DHT22;4340;52.516;13.468;2022-09-09T16:18:52;21.40;1.00